Arklow Rock — PBZM — position and weather

sailwx.info

Track history (hours):
 
Tides and Currents Weather Stations Pressure Air Temp Water Temp Dewpoint Dewpoint Depression Visibility Wind Speed Wind Dir Waves Ship Positions

Arklow Rock

Last reported at 2016-Jun-30 04:25 UTC. Time now 2016-Jun-30 05:11 UTC.
Position N 51°33' W 002°59'.

Length 90 m; draft 3.9 m.

Type: Cargo ship. MMSI: 246002000.

Date/timePositionNaut miles runAvg speedWind from/ knotsBaromVisibWave heightAir tempDewpointWater temp
2016-Jun-30 04:25N 51°33' W 002°59'0 0.0
2016-Jun-30 03:31N 51°33' W 002°59'0 0.0
2016-Jun-30 02:25N 51°33' W 002°59'0 0.0
2016-Jun-30 01:31N 51°33' W 002°59'0 0.0
2016-Jun-30 00:31N 51°33' W 002°59'0 0.0
2016-Jun-29 23:31N 51°33' W 002°59'0 0.0
2016-Jun-29 22:31N 51°33' W 002°59'0 0.0
2016-Jun-29 21:25N 51°33' W 002°59'0 0.0
2016-Jun-29 20:25N 51°33' W 002°59'0 0.0
2016-Jun-29 19:22N 51°33' W 002°59'0 0.0
2016-Jun-29 16:22N 51°33' W 002°59'0 0.0
2016-Jun-29 08:18N 51°33' W 002°59'0 0.0
2016-Jun-29 07:33N 51°33' W 002°59'0 0.0
2016-Jun-29 06:33N 51°33' W 002°59'0 0.0
2016-Jun-29 05:24N 51°33' W 002°59'0 0.0
2016-Jun-29 04:09N 51°33' W 002°59'0 0.0
2016-Jun-29 03:33N 51°33' W 002°59'0 0.0
2016-Jun-29 01:27N 51°33' W 002°59'0 0.4
2016-Jun-29 00:28N 51°33' W 002°59'1 1.0
2016-Jun-28 23:33N 51°32' W 002°59'4 4.2
2016-Jun-28 22:32N 51°28' W 003°02'139 5.8
2016-Jun-27 22:33N 51°59' W 006°41'1211.9
2016-Jun-27 21:33N 52°06' W 006°57'9 9.1
2016-Jun-27 20:33N 52°15' W 006°59'2 1.7
2016-Jun-27 19:31N 52°16' W 007°02'0 0.0
2016-Jun-27 18:28N 52°16' W 007°02'0 0.0
2016-Jun-27 17:31N 52°16' W 007°02'0 0.0
2016-Jun-27 16:31N 52°16' W 007°02'0 0.0
2016-Jun-27 15:31N 52°16' W 007°02'0 0.0
2016-Jun-27 14:31N 52°16' W 007°02'0 0.0
2016-Jun-27 13:28N 52°16' W 007°02'0 0.0
2016-Jun-27 12:19N 52°16' W 007°02'0 0.0
2016-Jun-27 11:31N 52°16' W 007°02'0 0.0
2016-Jun-27 10:31N 52°16' W 007°02'0 0.0
2016-Jun-27 09:31N 52°16' W 007°02'0 0.0
2016-Jun-27 08:28N 52°16' W 007°02'0 0.0
2016-Jun-27 07:28N 52°16' W 007°02'0 0.0
2016-Jun-27 06:31N 52°16' W 007°02'0 0.0
2016-Jun-27 05:31N 52°16' W 007°02'0 0.0
2016-Jun-27 04:28N 52°16' W 007°02'0 0.0
2016-Jun-27 03:31N 52°16' W 007°02'0 0.0
2016-Jun-27 02:31N 52°16' W 007°02'0 0.0
2016-Jun-27 01:31N 52°16' W 007°02'0 0.0
2016-Jun-27 00:25N 52°16' W 007°02'0 0.0
2016-Jun-26 23:31N 52°16' W 007°02'0 0.0
2016-Jun-26 22:31N 52°16' W 007°02'0 0.0
2016-Jun-26 21:22N 52°16' W 007°02'0 0.0
2016-Jun-26 20:28N 52°16' W 007°02'0 0.0
2016-Jun-26 19:34N 52°16' W 007°02'0 0.0
2016-Jun-26 18:28N 52°16' W 007°02'0 0.0
2016-Jun-26 17:33N 52°16' W 007°02'0 0.0
2016-Jun-26 16:33N 52°16' W 007°02'0 0.0
2016-Jun-26 15:33N 52°16' W 007°02'0 0.0
2016-Jun-26 14:30N 52°16' W 007°02'0 0.0
2016-Jun-26 13:33N 52°16' W 007°02'0 0.0
2016-Jun-26 12:27N 52°16' W 007°02'0 0.0
2016-Jun-26 11:21N 52°16' W 007°02'0 0.0
2016-Jun-26 10:33N 52°16' W 007°02'0 0.0
2016-Jun-26 09:33N 52°16' W 007°02'0 0.0
2016-Jun-26 08:30N 52°16' W 007°02'0 0.0
2016-Jun-26 07:33N 52°16' W 007°02'0 0.0
2016-Jun-26 06:33N 52°16' W 007°02'0 0.0
2016-Jun-26 05:33N 52°16' W 007°02'0 0.0
2016-Jun-26 04:33N 52°16' W 007°02'0 0.0
2016-Jun-26 03:33N 52°16' W 007°02'0 0.0
2016-Jun-26 02:33N 52°16' W 007°02'0 0.0
2016-Jun-26 01:33N 52°16' W 007°02'0 0.0
2016-Jun-26 00:30N 52°16' W 007°02'0 0.0
2016-Jun-25 23:30N 52°16' W 007°02'0 0.0
2016-Jun-25 22:33N 52°16' W 007°02'0 0.0
2016-Jun-25 21:33N 52°16' W 007°02'0 0.0
2016-Jun-25 20:33N 52°16' W 007°02'0 0.0
2016-Jun-25 19:33N 52°16' W 007°02'0 0.0
2016-Jun-25 18:30N 52°16' W 007°02'0 0.0
2016-Jun-25 17:33N 52°16' W 007°02'0 0.0
2016-Jun-25 16:30N 52°16' W 007°02'0 0.0
2016-Jun-25 15:30N 52°16' W 007°02'0 0.0
2016-Jun-25 14:33N 52°16' W 007°02'0 0.0
2016-Jun-25 13:33N 52°16' W 007°02'0 0.0
2016-Jun-25 12:33N 52°16' W 007°02'0 0.0
2016-Jun-25 11:33N 52°16' W 007°02'0 0.0
2016-Jun-25 10:33N 52°16' W 007°02'0 0.0
2016-Jun-25 09:33N 52°16' W 007°02'0 0.0
2016-Jun-25 08:32N 52°16' W 007°02'0 0.0
2016-Jun-25 07:32N 52°16' W 007°02'0 0.0
2016-Jun-25 06:32N 52°16' W 007°02'0 0.0
2016-Jun-25 05:29N 52°16' W 007°02'0 0.0
2016-Jun-25 04:32N 52°16' W 007°02'0 0.0
2016-Jun-25 03:32N 52°16' W 007°02'0 0.0
2016-Jun-25 02:32N 52°16' W 007°02'0 0.0
2016-Jun-25 01:32N 52°16' W 007°02'0 0.0
2016-Jun-25 00:32N 52°16' W 007°02'0 0.0
2016-Jun-24 23:32N 52°16' W 007°02'0 0.0
2016-Jun-24 22:32N 52°16' W 007°02'0 0.0
2016-Jun-24 21:32N 52°16' W 007°02'0 0.0
2016-Jun-24 20:26N 52°16' W 007°02'0 0.0
2016-Jun-24 19:32N 52°16' W 007°02'0 0.0
2016-Jun-24 18:29N 52°16' W 007°02'0 0.0
2016-Jun-24 17:29N 52°16' W 007°02'0 0.0
2016-Jun-24 16:32N 52°16' W 007°02'0 0.0
2016-Jun-24 15:32N 52°16' W 007°02'0 0.1
2016-Jun-24 14:33N 52°16' W 007°01'6 5.6
2016-Jun-24 13:34N 52°12' W 006°56'10 9.5
2016-Jun-24 12:33N 52°02' W 006°55'151 9.4
2016-Jun-23 20:32N 50°02' W 004°30'1110.9
2016-Jun-23 19:32N 50°05' W 004°14'1110.7
2016-Jun-23 18:31N 50°08' W 003°57'1211.1
2016-Jun-23 17:28N 50°10' W 003°40'1112.0
2016-Jun-23 16:34N 50°12' W 003°23'1312.7
2016-Jun-23 15:34N 50°14' W 003°03'1313.3
2016-Jun-23 14:33N 50°16' W 002°43'9510.5
2016-Jun-23 05:32N 50°31' W 000°16'1313.2
2016-Jun-23 04:33N 50°33' E 000°04'4611.3
2016-Jun-23 00:29N 50°55' E 001°08'910.0
2016-Jun-22 23:34N 51°01' E 001°20'1211.8
2016-Jun-22 22:34N 51°08' E 001°34'1413.8
2016-Jun-22 21:34N 51°18' E 001°50'1110.6
2016-Jun-22 20:33N 51°23' E 002°04'1211.5
2016-Jun-22 19:33N 51°22' E 002°23'1212.3
2016-Jun-22 18:32N 51°23' E 002°42'1111.0
2016-Jun-22 17:33N 51°22' E 002°60'1111.5
2016-Jun-22 16:33N 51°24' E 003°18'1111.2
2016-Jun-22 15:33N 51°26' E 003°35'1010.4
2016-Jun-22 14:33N 51°20' E 003°49'1 0.9
2016-Jun-22 13:34N 51°19' E 003°49'0 0.1
2016-Jun-22 12:34N 51°19' E 003°49'0 0.0
2016-Jun-22 11:32N 51°19' E 003°49'2 1.7
2016-Jun-22 10:34N 51°18' E 003°50'7 6.5
2016-Jun-22 09:34N 51°11' E 003°48'6 5.4
2016-Jun-22 08:32N 51°06' E 003°45'0 0.0
2016-Jun-22 07:32N 51°06' E 003°45'0 0.0
2016-Jun-22 06:32N 51°06' E 003°45'0 0.0
2016-Jun-22 05:32N 51°06' E 003°45'0 0.0
2016-Jun-22 04:32N 51°06' E 003°45'0 0.0
2016-Jun-22 03:32N 51°06' E 003°45'0 0.0
2016-Jun-22 02:32N 51°06' E 003°45'0 0.0
2016-Jun-22 01:32N 51°06' E 003°45'0 0.0
2016-Jun-22 00:32N 51°06' E 003°45'0 0.0
2016-Jun-21 23:32N 51°06' E 003°45'0 0.0
2016-Jun-21 22:32N 51°06' E 003°45'0 0.0
2016-Jun-21 21:32N 51°06' E 003°45'0 0.0
2016-Jun-21 20:32N 51°06' E 003°45'0 0.0
2016-Jun-21 19:32N 51°06' E 003°45'0 0.0
2016-Jun-21 18:32N 51°06' E 003°45'0 0.0
2016-Jun-21 17:32N 51°06' E 003°45'0 0.0
2016-Jun-21 16:32N 51°06' E 003°45'0 0.0
2016-Jun-21 15:32N 51°06' E 003°45'0 0.0
2016-Jun-21 14:32N 51°06' E 003°45'0 0.0
2016-Jun-21 13:32N 51°06' E 003°45'0 0.0
2016-Jun-21 12:32N 51°06' E 003°45'0 0.0
2016-Jun-21 11:31N 51°06' E 003°45'0 0.0
2016-Jun-21 10:31N 51°06' E 003°45'0 0.0
2016-Jun-21 09:32N 51°06' E 003°45'0 0.0
2016-Jun-21 08:31N 51°06' E 003°45'0 0.0
2016-Jun-21 07:31N 51°06' E 003°45'0 0.0
2016-Jun-21 06:31N 51°06' E 003°45'0 0.0
2016-Jun-21 04:31N 51°06' E 003°45'0 0.0
2016-Jun-21 03:31N 51°06' E 003°45'0 0.0
2016-Jun-21 02:31N 51°06' E 003°45'0 0.0
2016-Jun-21 01:31N 51°06' E 003°45'0 0.0
2016-Jun-21 00:31N 51°06' E 003°45'0 0.0
2016-Jun-20 23:31N 51°06' E 003°45'0 0.0
2016-Jun-20 22:31N 51°06' E 003°45'0 0.0
2016-Jun-20 21:31N 51°06' E 003°45'0 0.0
2016-Jun-20 20:31N 51°06' E 003°45'0 0.0
2016-Jun-20 19:31N 51°06' E 003°45'0 0.0
2016-Jun-20 18:31N 51°06' E 003°45'0 0.0
2016-Jun-20 17:31N 51°06' E 003°45'0 0.0
2016-Jun-20 16:31N 51°06' E 003°45'0 0.0
2016-Jun-20 15:31N 51°06' E 003°45'0 0.0
2016-Jun-20 14:31N 51°06' E 003°45'0 0.0
2016-Jun-20 13:31N 51°06' E 003°45'0 0.0
2016-Jun-20 12:31N 51°06' E 003°45'0 0.0
2016-Jun-20 11:31N 51°06' E 003°45'0 0.0
2016-Jun-20 10:31N 51°06' E 003°45'0 0.0
2016-Jun-20 09:31N 51°06' E 003°45'0 0.0
2016-Jun-20 08:31N 51°06' E 003°45'0 0.0
2016-Jun-20 07:31N 51°06' E 003°45'0 0.0
2016-Jun-20 06:31N 51°06' E 003°45'0 0.0
2016-Jun-20 05:31N 51°06' E 003°45'0 0.0
2016-Jun-20 04:31N 51°06' E 003°45'  
Track history (hours):
 
Tides and Currents Weather Stations Pressure Air Temp Water Temp Dewpoint Dewpoint Depression Visibility Wind Speed Wind Dir Waves Ship Positions

Arklow Rock

Last reported at 2016-Jun-30 04:25 UTC. Time now 2016-Jun-30 05:11 UTC.
Position N 51°33' W 002°59'.

Length 90 m; draft 3.9 m.

Type: Cargo ship. MMSI: 246002000.

Date/timePositionNaut miles runAvg speedWind from/ knotsBaromVisibWave heightAir tempDewpointWater temp
2016-Jun-30 04:25N 51°33' W 002°59'0 0.0
2016-Jun-30 03:31N 51°33' W 002°59'0 0.0
2016-Jun-30 02:25N 51°33' W 002°59'0 0.0
2016-Jun-30 01:31N 51°33' W 002°59'0 0.0
2016-Jun-30 00:31N 51°33' W 002°59'0 0.0
2016-Jun-29 23:31N 51°33' W 002°59'0 0.0
2016-Jun-29 22:31N 51°33' W 002°59'0 0.0
2016-Jun-29 21:25N 51°33' W 002°59'0 0.0
2016-Jun-29 20:25N 51°33' W 002°59'0 0.0
2016-Jun-29 19:22N 51°33' W 002°59'0 0.0
2016-Jun-29 16:22N 51°33' W 002°59'0 0.0
2016-Jun-29 08:18N 51°33' W 002°59'0 0.0
2016-Jun-29 07:33N 51°33' W 002°59'0 0.0
2016-Jun-29 06:33N 51°33' W 002°59'0 0.0
2016-Jun-29 05:24N 51°33' W 002°59'0 0.0
2016-Jun-29 04:09N 51°33' W 002°59'0 0.0
2016-Jun-29 03:33N 51°33' W 002°59'0 0.0
2016-Jun-29 01:27N 51°33' W 002°59'0 0.4
2016-Jun-29 00:28N 51°33' W 002°59'1 1.0
2016-Jun-28 23:33N 51°32' W 002°59'4 4.2
2016-Jun-28 22:32N 51°28' W 003°02'139 5.8
2016-Jun-27 22:33N 51°59' W 006°41'1211.9
2016-Jun-27 21:33N 52°06' W 006°57'9 9.1
2016-Jun-27 20:33N 52°15' W 006°59'2 1.7
2016-Jun-27 19:31N 52°16' W 007°02'0 0.0
2016-Jun-27 18:28N 52°16' W 007°02'0 0.0
2016-Jun-27 17:31N 52°16' W 007°02'0 0.0
2016-Jun-27 16:31N 52°16' W 007°02'0 0.0
2016-Jun-27 15:31N 52°16' W 007°02'0 0.0
2016-Jun-27 14:31N 52°16' W 007°02'0 0.0
2016-Jun-27 13:28N 52°16' W 007°02'0 0.0
2016-Jun-27 12:19N 52°16' W 007°02'0 0.0
2016-Jun-27 11:31N 52°16' W 007°02'0 0.0
2016-Jun-27 10:31N 52°16' W 007°02'0 0.0
2016-Jun-27 09:31N 52°16' W 007°02'0 0.0
2016-Jun-27 08:28N 52°16' W 007°02'0 0.0
2016-Jun-27 07:28N 52°16' W 007°02'0 0.0
2016-Jun-27 06:31N 52°16' W 007°02'0 0.0
2016-Jun-27 05:31N 52°16' W 007°02'0 0.0
2016-Jun-27 04:28N 52°16' W 007°02'0 0.0
2016-Jun-27 03:31N 52°16' W 007°02'0 0.0
2016-Jun-27 02:31N 52°16' W 007°02'0 0.0
2016-Jun-27 01:31N 52°16' W 007°02'0 0.0
2016-Jun-27 00:25N 52°16' W 007°02'0 0.0
2016-Jun-26 23:31N 52°16' W 007°02'0 0.0
2016-Jun-26 22:31N 52°16' W 007°02'0 0.0
2016-Jun-26 21:22N 52°16' W 007°02'0 0.0
2016-Jun-26 20:28N 52°16' W 007°02'0 0.0
2016-Jun-26 19:34N 52°16' W 007°02'0 0.0
2016-Jun-26 18:28N 52°16' W 007°02'0 0.0
2016-Jun-26 17:33N 52°16' W 007°02'0 0.0
2016-Jun-26 16:33N 52°16' W 007°02'0 0.0
2016-Jun-26 15:33N 52°16' W 007°02'0 0.0
2016-Jun-26 14:30N 52°16' W 007°02'0 0.0
2016-Jun-26 13:33N 52°16' W 007°02'0 0.0
2016-Jun-26 12:27N 52°16' W 007°02'0 0.0
2016-Jun-26 11:21N 52°16' W 007°02'0 0.0
2016-Jun-26 10:33N 52°16' W 007°02'0 0.0
2016-Jun-26 09:33N 52°16' W 007°02'0 0.0
2016-Jun-26 08:30N 52°16' W 007°02'0 0.0
2016-Jun-26 07:33N 52°16' W 007°02'0 0.0
2016-Jun-26 06:33N 52°16' W 007°02'0 0.0
2016-Jun-26 05:33N 52°16' W 007°02'0 0.0
2016-Jun-26 04:33N 52°16' W 007°02'0 0.0
2016-Jun-26 03:33N 52°16' W 007°02'0 0.0
2016-Jun-26 02:33N 52°16' W 007°02'0 0.0
2016-Jun-26 01:33N 52°16' W 007°02'0 0.0
2016-Jun-26 00:30N 52°16' W 007°02'0 0.0
2016-Jun-25 23:30N 52°16' W 007°02'0 0.0
2016-Jun-25 22:33N 52°16' W 007°02'0 0.0
2016-Jun-25 21:33N 52°16' W 007°02'0 0.0
2016-Jun-25 20:33N 52°16' W 007°02'0 0.0
2016-Jun-25 19:33N 52°16' W 007°02'0 0.0
2016-Jun-25 18:30N 52°16' W 007°02'0 0.0
2016-Jun-25 17:33N 52°16' W 007°02'0 0.0
2016-Jun-25 16:30N 52°16' W 007°02'0 0.0
2016-Jun-25 15:30N 52°16' W 007°02'0 0.0
2016-Jun-25 14:33N 52°16' W 007°02'0 0.0
2016-Jun-25 13:33N 52°16' W 007°02'0 0.0
2016-Jun-25 12:33N 52°16' W 007°02'0 0.0
2016-Jun-25 11:33N 52°16' W 007°02'0 0.0
2016-Jun-25 10:33N 52°16' W 007°02'0 0.0
2016-Jun-25 09:33N 52°16' W 007°02'0 0.0
2016-Jun-25 08:32N 52°16' W 007°02'0 0.0
2016-Jun-25 07:32N 52°16' W 007°02'0 0.0
2016-Jun-25 06:32N 52°16' W 007°02'0 0.0
2016-Jun-25 05:29N 52°16' W 007°02'0 0.0
2016-Jun-25 04:32N 52°16' W 007°02'0 0.0
2016-Jun-25 03:32N 52°16' W 007°02'0 0.0
2016-Jun-25 02:32N 52°16' W 007°02'0 0.0
2016-Jun-25 01:32N 52°16' W 007°02'0 0.0
2016-Jun-25 00:32N 52°16' W 007°02'0 0.0
2016-Jun-24 23:32N 52°16' W 007°02'0 0.0
2016-Jun-24 22:32N 52°16' W 007°02'0 0.0
2016-Jun-24 21:32N 52°16' W 007°02'0 0.0
2016-Jun-24 20:26N 52°16' W 007°02'0 0.0
2016-Jun-24 19:32N 52°16' W 007°02'0 0.0
2016-Jun-24 18:29N 52°16' W 007°02'0 0.0
2016-Jun-24 17:29N 52°16' W 007°02'0 0.0
2016-Jun-24 16:32N 52°16' W 007°02'0 0.0
2016-Jun-24 15:32N 52°16' W 007°02'0 0.1
2016-Jun-24 14:33N 52°16' W 007°01'6 5.6
2016-Jun-24 13:34N 52°12' W 006°56'10 9.5
2016-Jun-24 12:33N 52°02' W 006°55'151 9.4
2016-Jun-23 20:32N 50°02' W 004°30'1110.9
2016-Jun-23 19:32N 50°05' W 004°14'1110.7
2016-Jun-23 18:31N 50°08' W 003°57'1211.1
2016-Jun-23 17:28N 50°10' W 003°40'1112.0
2016-Jun-23 16:34N 50°12' W 003°23'1312.7
2016-Jun-23 15:34N 50°14' W 003°03'1313.3
2016-Jun-23 14:33N 50°16' W 002°43'9510.5
2016-Jun-23 05:32N 50°31' W 000°16'1313.2
2016-Jun-23 04:33N 50°33' E 000°04'4611.3
2016-Jun-23 00:29N 50°55' E 001°08'910.0
2016-Jun-22 23:34N 51°01' E 001°20'1211.8
2016-Jun-22 22:34N 51°08' E 001°34'1413.8
2016-Jun-22 21:34N 51°18' E 001°50'1110.6
2016-Jun-22 20:33N 51°23' E 002°04'1211.5
2016-Jun-22 19:33N 51°22' E 002°23'1212.3
2016-Jun-22 18:32N 51°23' E 002°42'1111.0
2016-Jun-22 17:33N 51°22' E 002°60'1111.5
2016-Jun-22 16:33N 51°24' E 003°18'1111.2
2016-Jun-22 15:33N 51°26' E 003°35'1010.4
2016-Jun-22 14:33N 51°20' E 003°49'1 0.9
2016-Jun-22 13:34N 51°19' E 003°49'0 0.1
2016-Jun-22 12:34N 51°19' E 003°49'0 0.0
2016-Jun-22 11:32N 51°19' E 003°49'2 1.7
2016-Jun-22 10:34N 51°18' E 003°50'7 6.5
2016-Jun-22 09:34N 51°11' E 003°48'6 5.4
2016-Jun-22 08:32N 51°06' E 003°45'0 0.0
2016-Jun-22 07:32N 51°06' E 003°45'0 0.0
2016-Jun-22 06:32N 51°06' E 003°45'0 0.0
2016-Jun-22 05:32N 51°06' E 003°45'0 0.0
2016-Jun-22 04:32N 51°06' E 003°45'0 0.0
2016-Jun-22 03:32N 51°06' E 003°45'0 0.0
2016-Jun-22 02:32N 51°06' E 003°45'0 0.0
2016-Jun-22 01:32N 51°06' E 003°45'0 0.0
2016-Jun-22 00:32N 51°06' E 003°45'0 0.0
2016-Jun-21 23:32N 51°06' E 003°45'0 0.0
2016-Jun-21 22:32N 51°06' E 003°45'0 0.0
2016-Jun-21 21:32N 51°06' E 003°45'0 0.0
2016-Jun-21 20:32N 51°06' E 003°45'0 0.0
2016-Jun-21 19:32N 51°06' E 003°45'0 0.0
2016-Jun-21 18:32N 51°06' E 003°45'0 0.0
2016-Jun-21 17:32N 51°06' E 003°45'0 0.0
2016-Jun-21 16:32N 51°06' E 003°45'0 0.0
2016-Jun-21 15:32N 51°06' E 003°45'0 0.0
2016-Jun-21 14:32N 51°06' E 003°45'0 0.0
2016-Jun-21 13:32N 51°06' E 003°45'0 0.0
2016-Jun-21 12:32N 51°06' E 003°45'0 0.0
2016-Jun-21 11:31N 51°06' E 003°45'0 0.0
2016-Jun-21 10:31N 51°06' E 003°45'0 0.0
2016-Jun-21 09:32N 51°06' E 003°45'0 0.0
2016-Jun-21 08:31N 51°06' E 003°45'0 0.0
2016-Jun-21 07:31N 51°06' E 003°45'0 0.0
2016-Jun-21 06:31N 51°06' E 003°45'0 0.0
2016-Jun-21 04:31N 51°06' E 003°45'0 0.0
2016-Jun-21 03:31N 51°06' E 003°45'0 0.0
2016-Jun-21 02:31N 51°06' E 003°45'0 0.0
2016-Jun-21 01:31N 51°06' E 003°45'0 0.0
2016-Jun-21 00:31N 51°06' E 003°45'0 0.0
2016-Jun-20 23:31N 51°06' E 003°45'0 0.0
2016-Jun-20 22:31N 51°06' E 003°45'0 0.0
2016-Jun-20 21:31N 51°06' E 003°45'0 0.0
2016-Jun-20 20:31N 51°06' E 003°45'0 0.0
2016-Jun-20 19:31N 51°06' E 003°45'0 0.0
2016-Jun-20 18:31N 51°06' E 003°45'0 0.0
2016-Jun-20 17:31N 51°06' E 003°45'0 0.0
2016-Jun-20 16:31N 51°06' E 003°45'0 0.0
2016-Jun-20 15:31N 51°06' E 003°45'0 0.0
2016-Jun-20 14:31N 51°06' E 003°45'0 0.0
2016-Jun-20 13:31N 51°06' E 003°45'0 0.0
2016-Jun-20 12:31N 51°06' E 003°45'0 0.0
2016-Jun-20 11:31N 51°06' E 003°45'0 0.0
2016-Jun-20 10:31N 51°06' E 003°45'0 0.0
2016-Jun-20 09:31N 51°06' E 003°45'0 0.0
2016-Jun-20 08:31N 51°06' E 003°45'0 0.0
2016-Jun-20 07:31N 51°06' E 003°45'0 0.0
2016-Jun-20 06:31N 51°06' E 003°45'0 0.0
2016-Jun-20 05:31N 51°06' E 003°45'0 0.0
2016-Jun-20 04:31N 51°06' E 003°45'  

Dump ship's entire track history